Time;durP1;ratioP1;P1;durP2;ratioP2;P2;SDS_P1;SDS_P2;PMS_P1;PMS_P2;Temp;Humidity;BMP_temperature;BMP_pressure;BME280_temperature;BME280_humidity;BME280_pressure;Samples;Min_cycle;Max_cycle;Signal;HPM_P1;HPM_P2
2022/11/09 00:02:25;;;;;;;7.38;3.00;;;;;;;17.35;64.40;100405.78;4793277;29;20047;-77
2022/11/09 00:04:52;;;;;;;5.20;2.60;;;;;;;17.33;64.38;100404.94;4802707;29;20519;-78
2022/11/09 00:07:17;;;;;;;5.00;2.75;;;;;;;17.34;64.40;100409.28;4813584;29;20559;-78
2022/11/09 00:09:44;;;;;;;5.22;2.88;;;;;;;17.33;64.37;100407.53;4802464;29;20072;-77
2022/11/09 00:12:09;;;;;;;4.18;2.47;;;;;;;17.34;64.23;100406.66;4839117;29;20034;-77
2022/11/09 00:14:38;;;;;;;5.90;2.70;;;;;;;17.35;64.46;100407.53;4809397;29;20483;-77
2022/11/09 00:17:04;;;;;;;4.28;2.78;;;;;;;17.33;64.26;100404.09;4807075;29;20026;-78
2022/11/09 00:19:32;;;;;;;5.82;2.83;;;;;;;17.33;64.45;100404.09;4825608;29;20065;-77
2022/11/09 00:21:57;;;;;;;4.80;2.75;;;;;;;17.33;64.43;100398.88;4810333;29;20125;-78
2022/11/09 00:24:23;;;;;;;4.68;2.47;;;;;;;17.34;64.19;100390.22;4814078;29;20110;-77
2022/11/09 00:26:48;;;;;;;5.93;2.72;;;;;;;17.34;64.27;100392.81;4805777;29;20042;-77
2022/11/09 00:29:16;;;;;;;6.70;2.67;;;;;;;17.32;64.20;100390.22;4778164;29;20099;-78
2022/11/09 00:31:46;;;;;;;5.18;2.50;;;;;;;17.33;64.29;100386.72;4791489;29;20039;-78
2022/11/09 00:34:11;;;;;;;4.93;2.40;;;;;;;17.33;64.20;100381.53;4792310;29;20046;-77
2022/11/09 00:36:37;;;;;;;5.07;2.42;;;;;;;17.32;64.27;100387.63;4820244;29;20045;-77
2022/11/09 00:39:03;;;;;;;4.40;2.28;;;;;;;17.33;64.25;100380.69;4818778;29;20035;-77
2022/11/09 00:41:28;;;;;;;4.95;2.25;;;;;;;17.32;64.24;100384.16;4812288;29;20150;-78
2022/11/09 00:43:54;;;;;;;4.28;2.15;;;;;;;17.33;64.25;100384.13;4814844;29;20033;-78
2022/11/09 00:46:20;;;;;;;6.30;2.67;;;;;;;17.32;64.37;100366.81;4809232;29;20038;-78
2022/11/09 00:48:45;;;;;;;4.43;2.05;;;;;;;17.32;64.27;100366.81;4802872;29;20126;-78
2022/11/09 00:51:11;;;;;;;4.63;2.30;;;;;;;17.33;64.19;100373.72;4822623;29;20083;-78
2022/11/09 00:53:37;;;;;;;6.13;2.15;;;;;;;17.33;64.14;100380.69;4824355;29;20030;-78
2022/11/09 00:56:09;;;;;;;5.00;2.40;;;;;;;17.33;64.26;100383.28;4801936;29;20142;-78
2022/11/09 00:58:37;;;;;;;3.67;1.98;;;;;;;17.32;64.21;100382.44;4810987;29;20045;-78
2022/11/09 01:01:14;;;;;;;4.00;2.08;;;;;;;17.33;64.21;100380.69;4800004;29;20031;-78
2022/11/09 01:03:39;;;;;;;5.05;2.40;;;;;;;17.32;64.25;100377.22;4827925;29;20045;-78
2022/11/09 01:06:05;;;;;;;4.85;2.10;;;;;;;17.31;64.15;100372.91;4822323;29;20038;-78
2022/11/09 01:08:32;;;;;;;4.88;2.10;;;;;;;17.32;64.44;100368.56;4824544;29;20140;-78
2022/11/09 01:11:04;;;;;;;4.85;2.30;;;;;;;17.32;64.30;100376.38;4824535;29;20125;-79
2022/11/09 01:13:30;;;;;;;4.70;2.40;;;;;;;17.31;64.07;100378.13;4824106;29;20180;-78
2022/11/09 01:15:56;;;;;;;4.38;2.17;;;;;;;17.32;64.15;100381.56;4817120;29;20061;-78
2022/11/09 01:18:21;;;;;;;2.97;1.98;;;;;;;17.32;64.04;100373.78;4805850;29;20066;-78
2022/11/09 01:20:48;;;;;;;3.45;1.88;;;;;;;17.31;64.10;100374.63;4802846;29;20121;-78
2022/11/09 01:23:15;;;;;;;4.30;2.10;;;;;;;17.31;64.22;100378.13;4816036;29;20042;-78
2022/11/09 01:25:42;;;;;;;3.35;1.75;;;;;;;17.31;64.15;100374.63;4806043;29;20087;-78
2022/11/09 01:28:08;;;;;;;4.00;2.03;;;;;;;17.31;64.15;100374.63;4796687;29;20459;-78
2022/11/09 01:30:36;;;;;;;3.28;1.67;;;;;;;17.31;64.22;100374.63;4809463;29;20502;-78
2022/11/09 01:33:03;;;;;;;3.38;1.90;;;;;;;17.31;64.40;100382.44;4814467;29;20424;-78
2022/11/09 01:35:29;;;;;;;3.13;1.83;;;;;;;17.31;64.25;100385.03;4824099;29;20553;-77
2022/11/09 01:37:54;;;;;;;4.03;1.80;;;;;;;17.30;64.08;100383.34;4819364;29;20126;-77
2022/11/09 01:40:20;;;;;;;4.65;2.00;;;;;;;17.30;64.01;100389.38;4790598;29;20475;-78
2022/11/09 01:42:45;;;;;;;3.83;2.20;;;;;;;17.30;64.04;100388.53;4820638;29;20055;-78
2022/11/09 01:45:16;;;;;;;3.58;1.90;;;;;;;17.30;64.06;100386.78;4802471;29;20031;-77
2022/11/09 01:47:44;;;;;;;3.42;1.70;;;;;;;17.30;64.33;100385.94;4807039;29;20039;-78
2022/11/09 01:50:11;;;;;;;4.22;1.80;;;;;;;17.29;64.23;100395.50;4820646;29;20045;-78
2022/11/09 01:52:41;;;;;;;3.35;1.83;;;;;;;17.30;64.12;100397.19;4790430;29;20090;-78
2022/11/09 01:55:12;;;;;;;3.17;1.77;;;;;;;17.30;64.06;100406.75;4823063;29;20042;-77
2022/11/09 01:58:00;;;;;;;3.42;1.90;;;;;;;17.30;63.98;100401.53;4823801;29;20058;-77
2022/11/09 02:00:26;;;;;;;3.03;1.92;;;;;;;17.28;64.04;100405.00;4799255;29;20211;-77
2022/11/09 02:03:08;;;;;;;3.53;1.83;;;;;;;17.30;63.92;100398.94;4805539;29;20110;-78
2022/11/09 02:05:36;;;;;;;4.28;1.85;;;;;;;17.28;63.92;100402.41;4822242;29;20524;-78
2022/11/09 02:08:04;;;;;;;3.20;1.58;;;;;;;17.30;64.20;100404.13;4822702;29;20133;-78
2022/11/09 02:10:38;;;;;;;4.03;1.83;;;;;;;17.28;63.86;100402.41;4822582;29;20486;-78
2022/11/09 02:13:05;;;;;;;4.47;1.60;;;;;;;17.28;63.90;100399.81;4823923;29;20053;-78
2022/11/09 02:15:31;;;;;;;3.70;1.77;;;;;;;17.28;63.91;100411.97;4819297;29;20370;-78
2022/11/09 02:17:57;;;;;;;3.72;1.80;;;;;;;17.29;63.92;100421.50;4805111;29;20042;-78
2022/11/09 02:20:24;;;;;;;2.75;1.50;;;;;;;17.27;64.09;100410.25;4820916;29;20057;-77
2022/11/09 02:22:50;;;;;;;4.18;1.80;;;;;;;17.28;63.96;100405.00;4823871;29;20041;-78
2022/11/09 02:25:16;;;;;;;2.88;1.60;;;;;;;17.29;64.01;100413.69;4807585;29;20389;-77
2022/11/09 02:27:44;;;;;;;3.72;1.58;;;;;;;17.28;63.91;100404.16;4814303;29;20046;-78
2022/11/09 02:30:11;;;;;;;3.55;1.75;;;;;;;17.28;64.03;100409.34;4810185;29;20031;-78
2022/11/09 02:32:36;;;;;;;3.38;1.52;;;;;;;17.28;63.99;100407.59;4812472;29;20031;-79
2022/11/09 02:35:01;;;;;;;4.47;1.50;;;;;;;17.28;63.93;100414.56;4807998;29;20038;-78
2022/11/09 02:37:33;;;;;;;3.78;1.67;;;;;;;17.27;63.76;100397.25;4813849;29;20064;-79
2022/11/09 02:40:01;;;;;;;3.72;1.70;;;;;;;17.28;63.96;100393.75;4824451;29;20061;-77
2022/11/09 02:42:27;;;;;;;1.73;1.15;;;;;;;17.27;63.90;100385.09;4808189;29;20490;-77
2022/11/09 02:44:57;;;;;;;3.50;1.58;;;;;;;17.26;63.96;100375.56;4823947;29;20115;-78
2022/11/09 02:47:23;;;;;;;3.30;1.55;;;;;;;17.28;63.71;100371.19;4823526;29;20058;-77
2022/11/09 02:49:49;;;;;;;3.25;1.48;;;;;;;17.27;63.90;100361.69;4821570;29;20073;-77
2022/11/09 02:52:14;;;;;;;3.67;1.50;;;;;;;17.27;63.68;100366.03;4792391;29;20062;-78
2022/11/09 02:54:40;;;;;;;3.50;1.60;;;;;;;17.26;63.88;100357.34;4805739;29;20035;-78
2022/11/09 02:57:05;;;;;;;3.88;1.80;;;;;;;17.26;63.81;100357.34;4823942;29;20035;-78
2022/11/09 02:59:31;;;;;;;3.28;1.55;;;;;;;17.26;63.76;100370.38;4811249;29;20030;-79
2022/11/09 03:01:56;;;;;;;2.70;1.50;;;;;;;17.27;63.72;100369.50;4806585;29;20039;-78
2022/11/09 03:04:21;;;;;;;2.97;1.60;;;;;;;17.27;63.88;100373.84;4785233;29;20035;-78
2022/11/09 03:06:47;;;;;;;4.15;1.80;;;;;;;17.27;63.52;100376.44;4800631;29;20042;-78
2022/11/09 03:09:12;;;;;;;3.47;1.60;;;;;;;17.27;63.61;100386.84;4814002;29;20510;-77
2022/11/09 03:11:39;;;;;;;2.92;1.48;;;;;;;17.27;63.55;100392.06;4791269;29;20027;-78
2022/11/09 03:14:04;;;;;;;2.92;1.50;;;;;;;17.26;63.79;100391.16;4796504;29;20189;-77
2022/11/09 03:16:30;;;;;;;3.30;1.52;;;;;;;17.27;63.76;100399.84;4808242;29;20126;-77
2022/11/09 03:18:56;;;;;;;3.22;1.48;;;;;;;17.26;63.48;100403.31;4799681;29;20359;-78
2022/11/09 03:21:23;;;;;;;2.28;1.25;;;;;;;17.26;63.68;100404.16;4812905;29;20042;-77
2022/11/09 03:23:49;;;;;;;5.93;1.83;;;;;;;17.26;63.80;100408.53;4825680;29;20026;-77
2022/11/09 03:26:14;;;;;;;4.07;1.42;;;;;;;17.26;63.54;100409.38;4795516;29;20046;-78
2022/11/09 03:28:40;;;;;;;3.15;1.35;;;;;;;17.25;63.79;100412.88;4826367;29;20047;-78
2022/11/09 03:31:07;;;;;;;6.32;1.60;;;;;;;17.26;63.50;100418.91;4793281;29;20031;-77
2022/11/09 03:33:32;;;;;;;3.83;1.55;;;;;;;17.26;64.00;100418.91;4808757;29;20054;-77
2022/11/09 03:35:57;;;;;;;4.68;1.48;;;;;;;17.26;63.86;100424.13;4814460;29;20050;-79
2022/11/09 03:38:23;;;;;;;2.58;1.20;;;;;;;17.26;63.46;100434.53;4828151;29;20058;-80
2022/11/09 03:40:48;;;;;;;4.13;1.60;;;;;;;17.24;63.47;100431.94;4826039;29;20089;-79
2022/11/09 03:43:13;;;;;;;3.63;1.45;;;;;;;17.25;63.78;100431.06;4823481;29;20410;-80
2022/11/09 03:45:39;;;;;;;2.88;1.33;;;;;;;17.25;63.67;100430.22;4818115;29;20104;-80
2022/11/09 03:48:05;;;;;;;3.22;1.42;;;;;;;17.25;63.55;100438.03;4824242;29;20394;-78
2022/11/09 03:50:32;;;;;;;3.10;1.33;;;;;;;17.25;63.55;100432.81;4821791;29;20550;-78
2022/11/09 03:52:59;;;;;;;2.35;1.27;;;;;;;17.25;63.55;100438.03;4812314;29;20555;-78
2022/11/09 03:55:25;;;;;;;3.70;1.67;;;;;;;17.24;63.64;100442.34;4814302;29;20064;-78
2022/11/09 03:57:50;;;;;;;3.13;1.20;;;;;;;17.24;63.72;100449.28;4811027;29;20125;-78
2022/11/09 04:00:18;;;;;;;3.88;1.42;;;;;;;17.23;63.51;100443.22;4810156;29;20478;-78
2022/11/09 04:02:44;;;;;;;3.10;1.30;;;;;;;17.24;63.10;100455.34;4822839;29;20459;-78
2022/11/09 04:05:10;;;;;;;4.30;1.30;;;;;;;17.24;63.75;100459.69;4796513;29;20034;-78
2022/11/09 04:07:35;;;;;;;3.25;1.30;;;;;;;17.24;63.56;100457.09;4821422;29;20464;-77
2022/11/09 04:10:01;;;;;;;2.78;1.25;;;;;;;17.23;63.56;100461.44;4815996;29;20137;-77
2022/11/09 04:12:26;;;;;;;2.38;1.20;;;;;;;17.24;63.55;100467.50;4792092;29;20073;-77
2022/11/09 04:14:51;;;;;;;3.03;1.20;;;;;;;17.24;63.37;100460.53;4808655;29;20034;-78
2022/11/09 04:17:17;;;;;;;5.43;1.60;;;;;;;17.24;63.45;100470.09;4806592;29;20501;-77
2022/11/09 04:19:42;;;;;;;3.75;1.50;;;;;;;17.24;63.61;100470.94;4793570;29;20410;-77
2022/11/09 04:22:08;;;;;;;3.35;1.20;;;;;;;17.24;63.55;100470.94;4792507;29;20039;-79
2022/11/09 04:24:33;;;;;;;3.03;1.30;;;;;;;17.22;63.73;100480.53;4820017;29;20042;-78
2022/11/09 04:26:59;;;;;;;2.55;1.15;;;;;;;17.23;63.47;100471.84;4825649;29;20502;-77
2022/11/09 04:29:24;;;;;;;3.22;1.20;;;;;;;17.22;63.56;100477.94;4816175;29;20035;-77
2022/11/09 04:31:50;;;;;;;2.83;1.20;;;;;;;17.24;63.63;100457.94;4798453;29;20517;-78
2022/11/09 04:34:16;;;;;;;2.38;1.20;;;;;;;17.22;63.40;100474.44;4777464;29;20125;-77
2022/11/09 04:36:44;;;;;;;3.22;1.40;;;;;;;17.23;63.49;100479.63;4812486;29;20038;-77
2022/11/09 04:39:10;;;;;;;2.05;1.20;;;;;;;17.22;63.47;100483.13;4808247;29;20038;-78
2022/11/09 04:41:35;;;;;;;2.92;1.20;;;;;;;17.23;63.33;100490.03;4806423;29;20057;-78
2022/11/09 04:44:01;;;;;;;2.65;1.15;;;;;;;17.22;63.43;100484.84;4817307;29;20045;-78
2022/11/09 04:46:26;;;;;;;2.80;1.27;;;;;;;17.21;63.29;100491.81;4794799;29;21750;-77
2022/11/09 04:48:52;;;;;;;2.42;1.13;;;;;;;17.21;63.44;100489.19;4793182;29;20038;-77
2022/11/09 04:51:17;;;;;;;3.08;1.00;;;;;;;17.21;63.37;100486.59;4799486;29;20440;-78
2022/11/09 04:53:43;;;;;;;3.28;1.27;;;;;;;17.23;63.30;100486.59;4806503;29;20047;-78
2022/11/09 04:56:08;;;;;;;2.42;1.05;;;;;;;17.22;63.56;100492.66;4806785;29;20118;-78
2022/11/09 04:58:34;;;;;;;2.22;0.98;;;;;;;17.21;63.34;100488.34;4809466;29;20034;-78
2022/11/09 05:01:03;;;;;;;1.60;0.93;;;;;;;17.22;63.24;100495.25;4809575;29;20066;-78
2022/11/09 05:03:29;;;;;;;2.22;1.00;;;;;;;17.22;63.29;100490.06;4821142;29;20057;-78
2022/11/09 05:05:54;;;;;;;3.60;1.10;;;;;;;17.21;63.53;100489.19;4809381;29;20478;-78
2022/11/09 05:08:20;;;;;;;2.45;1.20;;;;;;;17.21;63.19;100493.56;4826769;29;20039;-78
2022/11/09 05:10:45;;;;;;;2.03;1.10;;;;;;;17.21;63.17;100493.56;4815216;29;20039;-80
2022/11/09 05:13:12;;;;;;;2.33;1.20;;;;;;;17.20;63.55;100486.59;4814378;29;20038;-78
2022/11/09 05:15:37;;;;;;;2.65;1.10;;;;;;;17.18;63.27;100481.44;4826709;29;20064;-78
2022/11/09 05:18:04;;;;;;;2.28;1.00;;;;;;;17.20;63.47;100484.91;4793503;29;20031;-78
2022/11/09 05:20:29;;;;;;;2.67;1.23;;;;;;;17.20;63.19;100482.28;4818118;29;20077;-77
2022/11/09 05:25:44;;;;;;;2.63;1.10;;;;;;;17.20;63.42;100484.00;4808171;29;20130;-77
2022/11/09 05:28:10;;;;;;;1.80;1.20;;;;;;;17.20;63.10;100478.81;4811944;29;20039;-77
2022/11/09 05:30:36;;;;;;;2.25;1.00;;;;;;;17.20;63.55;100476.22;4809252;29;20034;-80
2022/11/09 05:33:01;;;;;;;2.20;1.10;;;;;;;17.20;63.29;100473.59;4805762;29;20395;-77
2022/11/09 05:35:27;;;;;;;2.90;1.20;;;;;;;17.20;63.35;100481.41;4790713;29;20083;-77
2022/11/09 05:37:52;;;;;;;1.95;1.08;;;;;;;17.20;63.42;100479.69;4794076;29;20030;-77
2022/11/09 05:40:19;;;;;;;2.40;1.20;;;;;;;17.23;63.44;100484.00;4795495;29;20069;-77
2022/11/09 05:42:44;;;;;;;3.67;1.10;;;;;;;17.25;63.33;100490.03;4824273;29;20050;-77
2022/11/09 05:45:13;;;;;;;2.10;0.82;;;;;;;17.25;63.39;100493.47;4807835;29;20191;-77
2022/11/09 05:47:40;;;;;;;2.72;1.00;;;;;;;17.27;63.48;100502.13;4824456;29;20051;-81
2022/11/09 05:50:08;;;;;;;1.92;1.02;;;;;;;17.28;63.63;100500.38;4824123;29;20038;-80
2022/11/09 05:52:34;;;;;;;2.33;0.98;;;;;;;17.30;63.51;100497.75;4824657;29;20479;-80
2022/11/09 05:55:00;;;;;;;1.83;1.08;;;;;;;17.28;63.45;100501.22;4795691;29;20062;-81
2022/11/09 05:57:26;;;;;;;2.28;1.20;;;;;;;17.30;63.69;100493.41;4813318;29;20034;-81
2022/11/09 05:59:51;;;;;;;2.35;1.08;;;;;;;17.30;63.57;100498.63;4802026;29;20129;-80
2022/11/09 06:02:17;;;;;;;1.88;0.93;;;;;;;17.32;63.72;100498.59;4819271;29;20465;-79
2022/11/09 06:04:42;;;;;;;3.20;1.10;;;;;;;17.33;63.71;100495.09;4822534;29;20034;-77
2022/11/09 06:07:07;;;;;;;1.70;0.90;;;;;;;17.38;63.57;100496.78;4819383;29;20042;-78
2022/11/09 06:09:33;;;;;;;1.90;0.98;;;;;;;17.41;63.81;100503.66;4823716;29;20122;-78
2022/11/09 06:11:58;;;;;;;2.17;0.93;;;;;;;17.42;63.94;100508.88;4789104;29;20039;-77
2022/11/09 06:14:24;;;;;;;2.72;1.02;;;;;;;17.43;63.80;100513.16;4820731;29;20029;-76
2022/11/09 06:16:49;;;;;;;5.28;1.15;;;;;;;17.43;64.02;100502.75;4799255;29;20050;-77
2022/11/09 06:19:14;;;;;;;2.65;1.10;;;;;;;17.43;63.88;100513.16;4824915;29;20038;-76
2022/11/09 06:21:40;;;;;;;3.60;0.95;;;;;;;17.42;63.86;100511.47;4809458;29;20094;-75
2022/11/09 06:24:06;;;;;;;4.93;1.00;;;;;;;17.45;64.12;100516.59;4830434;29;20065;-77
2022/11/09 06:26:31;;;;;;;2.80;1.20;;;;;;;17.45;64.30;100518.34;4808856;29;20065;-78
2022/11/09 06:28:56;;;;;;;4.43;1.00;;;;;;;17.44;64.41;100509.69;4809900;29;20031;-77
2022/11/09 06:31:22;;;;;;;2.92;1.15;;;;;;;17.43;64.44;100509.72;4813817;29;20041;-76
2022/11/09 06:33:47;;;;;;;2.42;1.10;;;;;;;17.41;64.59;100517.53;4823574;29;20034;-76
2022/11/09 06:36:12;;;;;;;2.80;1.10;;;;;;;17.41;64.50;100520.13;4823849;29;20038;-76
2022/11/09 06:38:39;;;;;;;5.53;1.00;;;;;;;17.40;64.69;100518.44;4817329;29;20041;-77
2022/11/09 06:41:05;;;;;;;3.65;1.10;;;;;;;17.39;64.48;100521.88;4814442;29;20137;-76
2022/11/09 06:43:30;;;;;;;2.63;1.10;;;;;;;17.39;64.53;100532.28;4824202;29;20122;-78
2022/11/09 06:45:55;;;;;;;3.92;1.00;;;;;;;17.37;64.50;100530.59;4815549;29;20043;-76
2022/11/09 06:48:22;;;;;;;2.10;1.00;;;;;;;17.37;64.58;100531.44;4788315;29;20057;-76
2022/11/09 06:50:48;;;;;;;3.13;1.27;;;;;;;17.37;64.42;100541.00;4794319;29;20042;-77
2022/11/09 06:53:16;;;;;;;5.10;1.70;;;;;;;17.42;64.66;100536.59;4826089;29;20068;-77
2022/11/09 06:55:42;;;;;;;7.00;2.13;;;;;;;17.40;64.75;100534.03;4826484;29;20541;-75
2022/11/09 06:58:11;;;;;;;5.65;2.38;;;;;;;17.40;64.75;100534.03;4823761;29;20180;-75
2022/11/09 07:00:37;;;;;;;10.02;2.63;;;;;;;17.38;64.71;100537.53;4814130;29;20037;-77
2022/11/09 07:03:02;;;;;;;7.95;2.17;;;;;;;17.37;64.77;100536.66;4809718;29;20039;-76
2022/11/09 07:05:28;;;;;;;11.63;2.90;;;;;;;17.36;64.59;100536.69;4809292;29;20053;-76
2022/11/09 07:07:53;;;;;;;8.98;2.38;;;;;;;17.36;64.84;100536.69;4809788;29;20034;-77
2022/11/09 07:10:19;;;;;;;9.50;2.95;;;;;;;17.36;64.69;100541.91;4808473;29;20099;-76
2022/11/09 07:12:44;;;;;;;9.82;2.50;;;;;;;17.35;64.90;100534.97;4808506;29;20035;-77
2022/11/09 07:15:10;;;;;;;8.07;2.40;;;;;;;17.36;64.76;100547.97;4793671;29;20041;-76
2022/11/09 07:17:38;;;;;;;5.40;2.15;;;;;;;17.35;64.76;100546.22;4793509;29;20061;-76
2022/11/09 07:20:07;;;;;;;8.32;2.58;;;;;;;17.34;64.57;100547.13;4808659;29;20498;-76
2022/11/09 07:22:38;;;;;;;8.40;2.20;;;;;;;17.34;64.80;100549.72;4808541;29;20145;-76
2022/11/09 07:25:05;;;;;;;9.32;2.22;;;;;;;17.36;64.89;100547.09;4794072;29;20045;-76
2022/11/09 07:27:30;;;;;;;6.68;2.40;;;;;;;17.37;64.56;100560.06;4809634;29;20457;-76
2022/11/09 07:29:55;;;;;;;6.80;2.20;;;;;;;17.37;64.79;100554.88;4793223;29;20130;-76
2022/11/09 07:32:21;;;;;;;9.18;2.40;;;;;;;17.37;64.69;100559.22;4808399;29;20099;-76
2022/11/09 07:34:46;;;;;;;5.43;2.00;;;;;;;17.36;64.51;100560.09;4778273;29;20030;-76
2022/11/09 07:37:12;;;;;;;7.00;2.22;;;;;;;17.36;64.72;100557.50;4808557;29;20108;-76
2022/11/09 07:39:37;;;;;;;7.07;2.20;;;;;;;17.35;64.52;100550.56;4809503;29;20037;-76
2022/11/09 07:42:02;;;;;;;6.30;2.25;;;;;;;17.35;64.69;100567.03;4808100;29;20503;-76
2022/11/09 07:44:28;;;;;;;7.68;2.55;;;;;;;17.36;64.55;100567.91;4793231;29;20499;-76
2022/11/09 07:46:53;;;;;;;6.55;2.35;;;;;;;17.36;64.48;100562.72;4810942;29;20039;-77
2022/11/09 07:49:19;;;;;;;6.88;2.35;;;;;;;17.36;64.74;100573.13;4810826;29;20054;-77
2022/11/09 07:51:44;;;;;;;6.93;2.10;;;;;;;17.36;64.50;100578.31;4794402;29;20042;-77
2022/11/09 07:54:10;;;;;;;5.75;2.20;;;;;;;17.36;64.62;100576.56;4808146;29;20034;-76
2022/11/09 07:56:36;;;;;;;6.20;2.25;;;;;;;17.36;64.74;100575.72;4808225;29;20047;-76
2022/11/09 07:59:02;;;;;;;4.97;2.10;;;;;;;17.37;64.49;100574.81;4809195;29;20070;-76
2022/11/09 08:01:27;;;;;;;8.52;1.95;;;;;;;17.37;64.65;100578.28;4808195;29;20033;-76
2022/11/09 08:03:53;;;;;;;6.70;2.08;;;;;;;17.37;64.58;100575.66;4808964;29;20386;-76
2022/11/09 08:06:19;;;;;;;5.63;2.00;;;;;;;17.36;64.35;100579.16;4808886;29;20104;-76
2022/11/09 08:08:45;;;;;;;7.63;2.10;;;;;;;17.37;64.63;100590.44;4808855;29;20042;-76
2022/11/09 08:11:10;;;;;;;4.75;2.08;;;;;;;17.38;64.52;100582.63;4807468;29;20074;-76
2022/11/09 08:13:36;;;;;;;4.88;2.03;;;;;;;17.38;64.44;100577.41;4808641;29;20039;-76
2022/11/09 08:16:02;;;;;;;5.68;2.13;;;;;;;17.41;64.17;100579.09;4807801;29;20042;-76
2022/11/09 08:18:28;;;;;;;5.70;1.70;;;;;;;17.41;64.25;100577.34;4808619;29;20034;-76
2022/11/09 08:20:53;;;;;;;5.07;1.90;;;;;;;17.43;64.08;100582.56;4807382;29;20035;-76
2022/11/09 08:23:20;;;;;;;3.97;1.85;;;;;;;17.43;64.08;100580.81;4808121;29;20521;-76
2022/11/09 08:25:46;;;;;;;4.43;1.88;;;;;;;17.42;64.35;100581.69;4792364;29;20394;-76
2022/11/09 08:28:12;;;;;;;7.22;2.20;;;;;;;17.42;64.42;100586.91;4792499;29;20126;-76
2022/11/09 08:30:37;;;;;;;5.35;2.13;;;;;;;17.41;64.31;100598.16;4807643;29;20127;-76
2022/11/09 08:33:03;;;;;;;4.65;1.67;;;;;;;17.41;64.18;100586.91;4807269;29;20038;-76
2022/11/09 08:35:29;;;;;;;7.68;2.00;;;;;;;17.41;64.21;100587.75;4807191;29;20061;-76
2022/11/09 08:37:58;;;;;;;4.45;2.00;;;;;;;17.43;64.28;100591.22;4807136;29;20035;-76
2022/11/09 08:40:25;;;;;;;3.95;1.70;;;;;;;17.44;64.04;100586.84;4807112;29;20542;-76
2022/11/09 08:42:51;;;;;;;4.65;1.65;;;;;;;17.43;64.06;100588.59;4806710;29;20137;-76
2022/11/09 08:45:17;;;;;;;4.88;1.90;;;;;;;17.45;64.39;100606.81;4792363;29;20109;-76
2022/11/09 08:47:43;;;;;;;5.82;1.70;;;;;;;17.43;64.04;100599.00;4806803;29;20027;-76
2022/11/09 08:50:10;;;;;;;4.18;1.83;;;;;;;17.42;64.15;100597.31;4807080;29;20045;-76
2022/11/09 08:52:37;;;;;;;4.57;1.80;;;;;;;17.42;63.99;100594.69;4806798;29;20114;-76
2022/11/09 08:55:03;;;;;;;5.63;1.60;;;;;;;17.42;64.27;100592.09;4806923;29;20030;-77
2022/11/09 08:57:29;;;;;;;4.25;1.60;;;;;;;17.43;63.92;100586.00;4806797;29;20100;-76
2022/11/09 08:59:54;;;;;;;4.78;1.65;;;;;;;17.44;63.98;100597.25;4806960;29;20462;-76
2022/11/09 09:02:20;;;;;;;5.78;1.70;;;;;;;17.45;63.97;100589.44;4791856;29;20058;-77
2022/11/09 09:04:45;;;;;;;4.03;1.80;;;;;;;17.45;64.02;100599.00;4810650;29;20068;-76
2022/11/09 09:07:11;;;;;;;3.45;1.50;;;;;;;17.46;64.10;100595.50;4809338;29;20035;-76
2022/11/09 09:09:37;;;;;;;5.35;1.85;;;;;;;17.44;64.00;100592.94;4808407;29;20126;-77
2022/11/09 09:12:04;;;;;;;5.35;1.60;;;;;;;17.46;64.16;100600.72;4796524;29;20063;-76
2022/11/09 09:14:29;;;;;;;4.97;1.63;;;;;;;17.46;63.84;100598.09;4793943;29;20042;-76
2022/11/09 09:16:55;;;;;;;3.60;1.65;;;;;;;17.45;64.04;100602.47;4806826;29;20091;-76
2022/11/09 09:19:20;;;;;;;3.90;1.70;;;;;;;17.47;64.11;100599.84;4807742;29;20375;-76
2022/11/09 09:21:46;;;;;;;3.08;1.50;;;;;;;17.47;64.03;100608.50;4807513;29;20062;-76
2022/11/09 09:24:11;;;;;;;6.43;1.70;;;;;;;17.48;64.10;100609.34;4792464;29;20038;-76
2022/11/09 09:26:37;;;;;;;3.45;1.52;;;;;;;17.48;63.77;100611.97;4792463;29;20042;-76
2022/11/09 09:29:02;;;;;;;4.20;1.50;;;;;;;17.48;63.99;100615.44;4792355;29;20031;-76
2022/11/09 09:31:27;;;;;;;3.78;1.50;;;;;;;17.51;63.89;100618.84;4806604;29;20034;-77
2022/11/09 09:33:53;;;;;;;5.50;1.70;;;;;;;17.50;63.84;100619.75;4806148;29;20398;-76
2022/11/09 09:36:20;;;;;;;5.47;1.50;;;;;;;17.51;63.85;100618.84;4791145;29;20402;-76
2022/11/09 09:38:48;;;;;;;3.95;1.55;;;;;;;17.49;63.86;100621.50;4806004;29;20483;-76
2022/11/09 09:41:33;;;;;;;3.53;1.30;;;;;;;17.50;63.74;100615.41;4806178;29;20501;-76
2022/11/09 09:44:07;;;;;;;4.20;1.50;;;;;;;17.50;63.94;100619.75;4805818;29;20059;-76
2022/11/09 09:46:42;;;;;;;4.55;1.65;;;;;;;17.48;63.87;100624.97;4807331;29;20058;-77
2022/11/09 09:49:26;;;;;;;4.25;1.45;;;;;;;17.48;64.04;100632.78;4807540;29;20394;-77
2022/11/09 09:52:05;;;;;;;;;;;;;;;17.47;63.88;100626.72;4806110;29;20030;-76
2022/11/09 09:54:38;;;;;;;3.55;1.40;;;;;;;17.46;63.93;100638.00;4805961;29;19913;-76
2022/11/09 09:57:03;;;;;;;2.45;1.55;;;;;;;17.45;64.04;100644.06;4805952;29;20478;-76
2022/11/09 09:59:40;;;;;;;4.60;1.33;;;;;;;17.45;63.89;100649.28;4805757;29;20150;-76
2022/11/09 10:02:20;;;;;;;4.15;1.50;;;;;;;17.44;64.05;100655.38;4806083;29;20042;-76
2022/11/09 10:04:46;;;;;;;4.05;1.30;;;;;;;17.44;64.23;100659.69;4806060;29;20030;-76
2022/11/09 10:07:33;;;;;;;3.33;1.40;;;;;;;17.43;63.90;100656.25;4805874;29;20041;-75
2022/11/09 10:10:08;;;;;;;4.22;1.45;;;;;;;17.44;63.98;100659.69;4805725;29;20121;-76
2022/11/09 10:12:50;;;;;;;6.70;1.70;;;;;;;17.45;63.92;100653.63;4805825;29;20487;-75
2022/11/09 10:15:37;;;;;;;3.13;1.30;;;;;;;17.46;63.96;100645.81;4806950;29;20068;-76
2022/11/09 10:18:08;;;;;;;3.33;1.58;;;;;;;17.47;63.91;100649.28;4807276;29;20030;-76
2022/11/09 10:20:46;;;;;;;3.60;1.30;;;;;;;17.48;64.03;100645.78;4807130;29;20103;-76
2022/11/09 10:23:34;;;;;;;6.03;1.70;;;;;;;17.50;64.13;100650.97;4807458;29;20101;-77
2022/11/09 10:26:15;;;;;;;4.72;1.60;;;;;;;17.51;64.15;100642.28;4810299;29;20065;-77
2022/11/09 10:28:42;;;;;;;3.85;1.35;;;;;;;17.52;64.06;100651.81;4808944;29;20058;-76
2022/11/09 10:31:21;;;;;;;3.88;1.30;;;;;;;17.53;64.17;100641.41;4805862;29;20197;-76
2022/11/09 10:33:56;;;;;;;2.70;1.33;;;;;;;17.56;63.82;100650.91;4805621;29;20038;-75
2022/11/09 10:36:28;;;;;;;5.18;1.67;;;;;;;17.54;63.89;100650.91;4805444;29;20073;-76
2022/11/09 10:38:59;;;;;;;3.97;1.40;;;;;;;17.56;64.04;100653.50;4806019;29;20378;-76
2022/11/09 10:41:36;;;;;;;2.78;1.30;;;;;;;17.55;64.11;100657.84;4805623;29;20475;-75
2022/11/09 10:44:02;;;;;;;3.75;1.50;;;;;;;17.52;64.24;100644.88;4806619;29;20058;-76
2022/11/09 10:46:27;;;;;;;3.50;1.38;;;;;;;17.52;63.97;100652.66;4790340;29;20046;-76
2022/11/09 10:48:54;;;;;;;3.28;1.30;;;;;;;17.51;64.11;100645.75;4790233;29;20462;-76
2022/11/09 10:51:34;;;;;;;4.43;1.40;;;;;;;17.53;64.07;100648.31;4806633;29;20447;-76
2022/11/09 10:54:20;;;;;;;1.98;1.20;;;;;;;17.53;64.10;100656.13;4805600;29;20039;-76
2022/11/09 10:56:51;;;;;;;4.18;1.20;;;;;;;17.53;64.10;100640.50;4805217;29;20126;-77
2022/11/09 10:59:35;;;;;;;3.90;1.40;;;;;;;17.53;63.88;100644.00;4805291;29;20037;-76
2022/11/09 11:02:01;;;;;;;3.38;1.10;;;;;;;17.54;64.01;100652.66;4806579;29;20026;-76
2022/11/09 11:04:27;;;;;;;4.32;1.20;;;;;;;17.53;64.08;100651.81;4790198;29;20076;-77
2022/11/09 11:06:54;;;;;;;4.38;1.48;;;;;;;17.51;64.31;100645.75;4806358;29;20049;-77
2022/11/09 11:09:22;;;;;;;3.45;1.40;;;;;;;17.51;63.89;100650.06;4806742;29;20092;-77
2022/11/09 11:11:48;;;;;;;3.22;1.33;;;;;;;17.51;64.04;100650.06;4805280;29;20038;-76
2022/11/09 12:09:29;;;;;;;4.57;1.30;;;;;;;17.57;63.80;100676.03;4849164;29;20046;-85
2022/11/09 12:45:00;;;;;;;4.15;1.25;;;;;;;17.53;63.76;100690.84;4849589;29;20041;-84
2022/11/09 12:48:05;;;;;;;3.45;1.10;;;;;;;17.53;63.69;100703.84;4794495;30;20047;-84
2022/11/09 13:02:26;;;;;;;2.65;1.00;;;;;;;17.51;63.68;100700.41;4828807;29;20059;-83
2022/11/09 13:05:29;;;;;;;2.15;0.90;;;;;;;17.51;63.83;100707.31;4828988;29;20050;-85
2022/11/09 13:08:48;;;;;;;3.65;1.00;;;;;;;17.52;63.75;100696.03;4827365;29;20072;-84
2022/11/09 13:12:10;;;;;;;2.60;1.10;;;;;;;17.51;63.83;100689.97;4810168;30;20015;-84